createdAt,value
2019-05-26T00:02:28.861Z,17.31
2019-05-26T00:05:00.162Z,17.13
2019-05-26T00:07:31.558Z,16.95
2019-05-26T00:10:02.977Z,16.92
2019-05-26T00:12:34.398Z,16.86
2019-05-26T00:15:06.999Z,16.79
2019-05-26T00:17:38.221Z,16.79
2019-05-26T00:20:09.890Z,16.81
2019-05-26T00:22:41.146Z,17.02
2019-05-26T00:25:12.571Z,17.06
2019-05-26T00:27:43.752Z,17.11
2019-05-26T00:30:15.951Z,17.08
2019-05-26T00:32:47.148Z,17.06
2019-05-26T00:35:18.500Z,17.09
2019-05-26T00:37:50.662Z,17.09
2019-05-26T00:40:22.190Z,17.02
2019-05-26T00:42:53.468Z,16.88
2019-05-26T00:45:24.790Z,16.91
2019-05-26T00:47:58.432Z,16.93
2019-05-26T00:50:29.633Z,16.83
2019-05-26T00:53:00.915Z,16.75
2019-05-26T00:55:32.228Z,16.71
2019-05-26T00:58:03.486Z,16.84
2019-05-26T01:00:37.645Z,16.76
2019-05-26T01:03:09.382Z,16.70
2019-05-26T01:05:41.907Z,16.70
2019-05-26T01:08:13.198Z,16.69
2019-05-26T01:10:44.828Z,16.77
2019-05-26T01:13:17.251Z,16.79
2019-05-26T01:15:49.202Z,16.80
2019-05-26T01:18:23.329Z,16.78
2019-05-26T01:20:56.643Z,16.83
2019-05-26T01:23:28.926Z,16.85
2019-05-26T01:26:01.566Z,16.90
2019-05-26T01:28:34.845Z,16.93
2019-05-26T01:31:11.266Z,17.01
2019-05-26T01:33:46.124Z,17.01
2019-05-26T01:36:20.646Z,17.02
2019-05-26T01:38:56.467Z,17.15
2019-05-26T01:41:30.449Z,17.12
2019-05-26T01:44:04.180Z,17.16
2019-05-26T01:46:35.378Z,17.14
2019-05-26T01:49:07.623Z,17.11
2019-05-26T01:51:38.869Z,17.15
2019-05-26T01:54:11.183Z,17.12
2019-05-26T01:56:45.964Z,17.06
2019-05-26T01:59:22.270Z,17.14
2019-05-26T02:01:58.642Z,17.14
2019-05-26T02:04:29.412Z,17.14
2019-05-26T02:07:02.814Z,17.08
2019-05-26T02:09:36.462Z,17.11
2019-05-26T02:12:07.836Z,17.11
2019-05-26T02:14:38.997Z,17.13
2019-05-26T02:17:10.222Z,17.14
2019-05-26T02:19:41.486Z,17.23
2019-05-26T02:22:12.874Z,17.18
2019-05-26T02:24:44.049Z,17.23
2019-05-26T02:27:15.374Z,17.27
2019-05-26T02:29:46.671Z,17.30
2019-05-26T02:32:17.980Z,17.36
2019-05-26T02:34:49.178Z,17.43
2019-05-26T02:37:20.417Z,17.49
2019-05-26T02:39:51.624Z,17.52
2019-05-26T02:42:22.887Z,17.53
2019-05-26T02:44:58.904Z,17.53
2019-05-26T02:47:26.796Z,17.56
2019-05-26T02:49:59.021Z,17.65
2019-05-26T02:52:30.364Z,17.64
2019-05-26T02:55:01.675Z,17.70
2019-05-26T02:57:32.997Z,17.78
2019-05-26T03:00:05.936Z,17.83
2019-05-26T03:02:37.383Z,17.93
2019-05-26T03:05:11.593Z,17.96
2019-05-26T03:07:43.818Z,18.03
2019-05-26T03:10:16.506Z,18.10
2019-05-26T03:12:49.057Z,18.10
2019-05-26T03:15:20.463Z,18.13
2019-05-26T03:17:54.758Z,18.19
2019-05-26T03:20:25.937Z,18.33
2019-05-26T03:22:58.963Z,18.37
2019-05-26T03:25:33.001Z,18.27
2019-05-26T03:28:05.154Z,18.40
2019-05-26T03:30:36.996Z,18.49
2019-05-26T03:33:08.381Z,18.47
2019-05-26T03:35:39.639Z,18.56
2019-05-26T03:38:10.946Z,18.52
2019-05-26T03:40:42.121Z,18.46
2019-05-26T03:43:13.845Z,18.47
2019-05-26T03:46:02.975Z,18.44
2019-05-26T03:48:34.216Z,18.41
2019-05-26T03:51:06.274Z,18.53
2019-05-26T03:53:37.537Z,18.53
2019-05-26T03:56:08.822Z,18.51
2019-05-26T03:58:40.199Z,18.51
2019-05-26T04:01:11.524Z,18.61
2019-05-26T04:03:42.893Z,18.47
2019-05-26T04:06:14.097Z,18.44
2019-05-26T04:08:46.918Z,18.42
2019-05-26T04:11:18.848Z,18.38
2019-05-26T04:13:50.198Z,18.36
2019-05-26T04:16:21.576Z,18.25
2019-05-26T04:18:52.941Z,18.30
2019-05-26T04:21:24.129Z,18.26
2019-05-26T04:23:55.468Z,18.47
2019-05-26T04:26:26.667Z,18.43
2019-05-26T04:28:57.920Z,18.54
2019-05-26T04:31:29.016Z,18.53
2019-05-26T04:34:00.223Z,18.33
2019-05-26T04:36:31.424Z,18.26
2019-05-26T04:39:02.770Z,18.19
2019-05-26T04:41:33.953Z,18.31
2019-05-26T04:44:05.320Z,18.40
2019-05-26T04:46:36.513Z,18.48
2019-05-26T04:49:07.759Z,18.58
2019-05-26T04:51:39.870Z,18.59
2019-05-26T04:54:11.139Z,18.77
2019-05-26T04:56:42.308Z,18.87
2019-05-26T04:59:13.638Z,18.82
2019-05-26T05:01:44.814Z,18.96
2019-05-26T05:04:16.361Z,18.91
2019-05-26T05:06:47.648Z,18.95
2019-05-26T05:09:18.894Z,19.18
2019-05-26T05:11:50.201Z,19.37
2019-05-26T05:14:21.816Z,19.54
2019-05-26T05:16:53.007Z,19.66
2019-05-26T05:19:24.223Z,19.72
2019-05-26T05:21:55.439Z,19.97
2019-05-26T05:24:26.737Z,20.03
2019-05-26T05:26:58.058Z,20.00
2019-05-26T05:29:29.281Z,20.26
2019-05-26T05:32:00.494Z,20.61
2019-05-26T05:34:31.735Z,20.72
2019-05-26T05:37:03.011Z,20.66
2019-05-26T05:39:34.369Z,20.58
2019-05-26T05:42:05.546Z,20.63
2019-05-26T05:44:36.803Z,20.75
2019-05-26T05:47:08.082Z,20.68
2019-05-26T05:49:39.332Z,20.60
2019-05-26T05:52:11.560Z,20.72
2019-05-26T05:54:42.772Z,20.79
2019-05-26T05:57:13.973Z,20.90
2019-05-26T05:59:45.348Z,20.87
2019-05-26T06:02:16.689Z,20.86
2019-05-26T06:04:47.938Z,20.70
2019-05-26T06:07:19.246Z,20.77
2019-05-26T06:09:50.546Z,20.95
2019-05-26T06:12:21.816Z,21.01
2019-05-26T06:14:53.183Z,21.12
2019-05-26T06:17:24.435Z,21.03
2019-05-26T06:19:55.695Z,21.10
2019-05-26T06:22:26.984Z,20.85
2019-05-26T06:24:58.308Z,20.87
2019-05-26T06:27:29.589Z,20.74
2019-05-26T06:30:00.959Z,21.05
2019-05-26T06:32:32.220Z,20.95
2019-05-26T06:35:03.408Z,20.96
2019-05-26T06:37:34.565Z,20.81
2019-05-26T06:40:09.345Z,20.91
2019-05-26T06:42:42.648Z,21.28
2019-05-26T06:45:14.092Z,21.50
2019-05-26T06:47:45.266Z,21.92
2019-05-26T06:50:16.722Z,21.88
2019-05-26T06:52:49.738Z,22.06
2019-05-26T06:55:21.111Z,21.77
2019-05-26T06:57:52.316Z,21.48
2019-05-26T07:00:23.598Z,21.29
2019-05-26T07:02:54.881Z,21.38
2019-05-26T07:05:26.283Z,21.20
2019-05-26T07:07:57.518Z,21.16
2019-05-26T07:10:28.847Z,21.08
2019-05-26T07:13:00.016Z,21.50
2019-05-26T07:15:31.254Z,21.81
2019-05-26T07:18:02.411Z,22.00
2019-05-26T07:20:33.758Z,22.13
2019-05-26T07:23:06.817Z,22.22
2019-05-26T07:25:37.925Z,22.42
2019-05-26T07:28:09.115Z,22.89
2019-05-26T07:30:40.353Z,23.09
2019-05-26T07:33:11.694Z,22.74
2019-05-26T07:35:44.244Z,22.75
2019-05-26T07:38:15.456Z,22.70
2019-05-26T07:40:46.832Z,22.79
2019-05-26T07:43:17.951Z,22.79
2019-05-26T07:45:49.161Z,22.78
2019-05-26T07:48:20.467Z,22.46
2019-05-26T07:50:51.837Z,22.31
2019-05-26T07:53:23.920Z,22.57
2019-05-26T07:55:55.189Z,22.84
2019-05-26T07:58:26.406Z,23.19
2019-05-26T08:00:57.721Z,23.34
2019-05-26T08:03:29.008Z,23.43
2019-05-26T08:06:00.358Z,23.77
2019-05-26T08:08:31.578Z,23.89
2019-05-26T08:11:02.797Z,23.84
2019-05-26T08:13:33.995Z,23.60
2019-05-26T08:16:05.400Z,23.83
2019-05-26T08:18:36.589Z,24.17
2019-05-26T08:21:07.959Z,24.28
2019-05-26T08:23:39.061Z,24.70
2019-05-26T08:26:10.232Z,25.01
2019-05-26T08:28:41.428Z,25.24
2019-05-26T08:31:13.453Z,25.39
2019-05-26T08:33:44.809Z,25.30
2019-05-26T08:36:15.945Z,25.53
2019-05-26T08:38:47.010Z,25.32
2019-05-26T08:41:18.223Z,24.85
2019-05-26T08:43:49.310Z,24.24
2019-05-26T08:46:20.510Z,24.22
2019-05-26T08:48:51.515Z,24.23
2019-05-26T08:51:22.613Z,24.05
2019-05-26T08:53:54.791Z,24.12
2019-05-26T08:56:25.930Z,24.32
2019-05-26T08:58:57.009Z,24.90
2019-05-26T09:01:28.236Z,25.56
2019-05-26T09:03:59.307Z,25.76
2019-05-26T09:06:30.582Z,25.55
2019-05-26T09:09:01.684Z,25.33
2019-05-26T09:11:32.789Z,24.64
2019-05-26T09:14:03.981Z,24.32
2019-05-26T09:16:35.225Z,24.03
2019-05-26T09:19:07.322Z,24.11
2019-05-26T09:21:38.416Z,24.08
2019-05-26T09:24:12.557Z,24.06
2019-05-26T09:26:43.893Z,24.04
2019-05-26T09:29:15.077Z,23.78
2019-05-26T09:31:46.348Z,22.82
2019-05-26T09:34:17.518Z,22.26
2019-05-26T09:36:48.874Z,22.11
2019-05-26T09:39:20.078Z,21.50
2019-05-26T09:41:51.323Z,21.29
2019-05-26T09:44:22.521Z,21.14
2019-05-26T09:46:53.807Z,21.05
2019-05-26T09:49:25.012Z,21.10
2019-05-26T09:51:56.285Z,21.35
2019-05-26T09:54:29.218Z,21.31
2019-05-26T09:57:00.591Z,21.22
2019-05-26T09:59:31.904Z,21.43
2019-05-26T10:02:03.355Z,21.67
2019-05-26T10:04:34.666Z,22.31
2019-05-26T10:07:06.001Z,22.74
2019-05-26T10:09:37.187Z,23.32
2019-05-26T10:12:08.569Z,23.76
2019-05-26T10:14:39.802Z,23.42
2019-05-26T10:17:11.178Z,23.23
2019-05-26T10:19:42.327Z,22.96
2019-05-26T10:22:13.717Z,23.20
2019-05-26T10:24:44.889Z,23.66
2019-05-26T10:27:16.188Z,23.93
2019-05-26T10:29:47.416Z,24.13
2019-05-26T10:32:18.815Z,24.32
2019-05-26T10:34:49.883Z,23.98
2019-05-26T10:37:21.049Z,23.37
2019-05-26T10:39:52.177Z,23.06
2019-05-26T10:42:23.430Z,22.57
2019-05-26T10:44:54.689Z,22.79
2019-05-26T10:47:26.039Z,23.19
2019-05-26T10:49:57.243Z,23.17
2019-05-26T10:52:28.625Z,23.14
2019-05-26T10:55:00.818Z,23.40
2019-05-26T10:57:32.472Z,24.08
2019-05-26T11:00:04.991Z,24.37
2019-05-26T11:02:36.334Z,25.03
2019-05-26T11:05:08.522Z,24.83
2019-05-26T11:07:39.597Z,24.45
2019-05-26T11:10:10.780Z,24.00
2019-05-26T11:12:42.038Z,24.77
2019-05-26T11:15:14.830Z,25.57
2019-05-26T11:17:46.250Z,25.64
2019-05-26T11:20:17.658Z,25.05
2019-05-26T11:22:49.043Z,24.74
2019-05-26T11:25:20.246Z,24.91
2019-05-26T11:27:51.601Z,25.17
2019-05-26T11:30:23.323Z,25.38
2019-05-26T11:32:54.560Z,25.84
2019-05-26T11:35:25.887Z,25.90
2019-05-26T11:37:57.132Z,25.82
2019-05-26T11:40:28.346Z,25.62
2019-05-26T11:42:59.591Z,25.15
2019-05-26T11:45:30.815Z,24.40
2019-05-26T11:48:02.057Z,24.44
2019-05-26T11:50:33.260Z,24.54
2019-05-26T11:53:04.581Z,24.63
2019-05-26T11:55:36.733Z,24.72
2019-05-26T11:58:08.093Z,24.77
2019-05-26T12:00:39.298Z,24.82
2019-05-26T12:03:10.750Z,24.52
2019-05-26T12:05:41.938Z,24.03
2019-05-26T12:08:13.193Z,23.42
2019-05-26T12:10:44.388Z,23.22
2019-05-26T12:13:15.642Z,23.30
2019-05-26T12:15:46.853Z,24.32
2019-05-26T12:18:18.226Z,25.05
2019-05-26T12:20:49.534Z,25.24
2019-05-26T12:23:20.862Z,25.73
2019-05-26T12:25:52.084Z,26.33
2019-05-26T12:28:23.359Z,26.85
2019-05-26T12:30:54.561Z,27.00
2019-05-26T12:33:25.788Z,27.17
2019-05-26T12:35:57.010Z,27.18
2019-05-26T12:38:28.146Z,27.29
2019-05-26T12:40:59.367Z,26.85
2019-05-26T12:43:30.820Z,26.53
2019-05-26T12:46:02.012Z,26.29
2019-05-26T12:48:33.311Z,25.72
2019-05-26T12:51:04.591Z,24.77
2019-05-26T12:53:35.900Z,24.70
2019-05-26T12:56:08.105Z,24.26
2019-05-26T12:58:39.441Z,23.61
2019-05-26T13:01:10.668Z,23.09
2019-05-26T13:03:42.145Z,22.79
2019-05-26T13:06:13.409Z,22.53
2019-05-26T13:08:44.786Z,22.45
2019-05-26T13:11:15.978Z,22.87
2019-05-26T13:13:47.326Z,23.44
2019-05-26T13:16:18.489Z,24.09
2019-05-26T13:18:49.820Z,24.40
2019-05-26T13:21:21.105Z,24.82
2019-05-26T13:23:52.493Z,25.05
2019-05-26T13:26:23.653Z,25.30
2019-05-26T13:28:54.889Z,25.62
2019-05-26T13:31:26.201Z,25.66
2019-05-26T13:33:57.541Z,25.49
2019-05-26T13:36:28.802Z,25.38
2019-05-26T13:39:00.050Z,25.56
2019-05-26T13:41:31.282Z,25.73
2019-05-26T13:44:02.655Z,25.41
2019-05-26T13:46:33.974Z,25.52
2019-05-26T13:49:05.424Z,25.03
2019-05-26T13:51:36.733Z,24.83
2019-05-26T13:54:08.000Z,24.68
2019-05-26T13:56:40.993Z,24.36
2019-05-26T13:59:12.307Z,23.68
2019-05-26T14:01:43.599Z,22.52
2019-05-26T14:04:15.064Z,21.58
2019-05-26T14:06:46.425Z,21.26
2019-05-26T14:09:18.079Z,21.20
2019-05-26T14:11:49.393Z,20.52
2019-05-26T14:14:20.622Z,20.40
2019-05-26T14:16:54.281Z,20.61
2019-05-26T14:19:28.180Z,20.84
2019-05-26T14:21:59.484Z,21.09
2019-05-26T14:24:31.075Z,20.81
2019-05-26T14:27:02.472Z,20.84
2019-05-26T14:29:33.703Z,20.87
2019-05-26T14:32:04.977Z,20.66
2019-05-26T14:34:36.196Z,20.52
2019-05-26T14:37:07.469Z,20.45
2019-05-26T14:39:38.661Z,20.57
2019-05-26T14:42:09.910Z,20.55
2019-05-26T14:44:41.094Z,20.61
2019-05-26T14:47:12.300Z,20.67
2019-05-26T14:49:43.515Z,20.79
2019-05-26T14:52:14.769Z,20.81
2019-05-26T14:54:46.025Z,21.01
2019-05-26T14:57:18.165Z,21.05
2019-05-26T14:59:49.388Z,21.25
2019-05-26T15:02:20.766Z,21.26
2019-05-26T15:04:52.076Z,21.24
2019-05-26T15:07:23.324Z,21.30
2019-05-26T15:09:54.574Z,21.37
2019-05-26T15:12:25.794Z,21.35
2019-05-26T15:14:57.105Z,21.35
2019-05-26T15:17:28.285Z,21.34
2019-05-26T15:19:59.607Z,21.26
2019-05-26T15:22:30.848Z,21.11
2019-05-26T15:25:02.016Z,21.10
2019-05-26T15:27:33.305Z,21.09
2019-05-26T15:30:06.850Z,21.21
2019-05-26T15:32:38.118Z,21.33
2019-05-26T15:35:10.959Z,21.16
2019-05-26T15:37:42.080Z,21.28
2019-05-26T15:40:13.478Z,21.46
2019-05-26T15:42:44.743Z,21.48
2019-05-26T15:45:16.263Z,21.66
2019-05-26T15:47:47.559Z,21.67
2019-05-26T15:50:18.902Z,21.70
2019-05-26T15:52:50.171Z,21.68
2019-05-26T15:55:21.505Z,21.64
2019-05-26T15:57:53.558Z,21.61
2019-05-26T16:00:25.346Z,21.65
2019-05-26T16:02:56.544Z,21.66
2019-05-26T16:05:27.769Z,21.51
2019-05-26T16:07:59.050Z,21.39
2019-05-26T16:10:30.404Z,21.34
2019-05-26T16:13:01.811Z,21.40
2019-05-26T16:15:33.134Z,21.29
2019-05-26T16:18:04.511Z,21.26
2019-05-26T16:20:35.803Z,21.28
2019-05-26T16:23:08.884Z,21.23
2019-05-26T16:25:40.048Z,21.17
2019-05-26T16:28:11.221Z,21.13
2019-05-26T16:30:42.529Z,21.23
2019-05-26T16:33:13.835Z,21.16
2019-05-26T16:35:44.993Z,21.11
2019-05-26T16:38:16.274Z,21.05
2019-05-26T16:40:47.512Z,20.97
2019-05-26T16:43:18.702Z,20.96
2019-05-26T16:45:56.037Z,20.93
2019-05-26T16:48:22.867Z,20.99
2019-05-26T16:50:54.160Z,20.88
2019-05-26T16:53:25.475Z,20.87
2019-05-26T16:55:56.723Z,20.72
2019-05-26T16:58:27.929Z,20.65
2019-05-26T17:00:59.207Z,20.60
2019-05-26T17:03:30.537Z,20.57
2019-05-26T17:06:07.840Z,20.50
2019-05-26T17:08:34.839Z,20.46
2019-05-26T17:11:06.130Z,20.52
2019-05-26T17:13:37.408Z,20.53
2019-05-26T17:16:08.763Z,20.52
2019-05-26T17:18:39.961Z,20.54
2019-05-26T17:21:11.272Z,20.52
2019-05-26T17:23:42.435Z,20.60
2019-05-26T17:26:13.703Z,20.62
2019-05-26T17:28:44.892Z,20.67
2019-05-26T17:31:16.245Z,20.55
2019-05-26T17:33:47.445Z,20.50
2019-05-26T17:36:18.755Z,20.45
2019-05-26T17:38:49.964Z,20.45
2019-05-26T17:41:21.286Z,20.49
2019-05-26T17:43:52.469Z,20.34
2019-05-26T17:46:23.712Z,20.27
2019-05-26T17:48:54.984Z,20.17
2019-05-26T17:51:26.200Z,20.21
2019-05-26T17:53:57.549Z,20.13
2019-05-26T17:56:28.883Z,20.16
2019-05-26T17:59:01.178Z,20.18
2019-05-26T18:01:32.473Z,20.04
2019-05-26T18:04:03.769Z,19.94
2019-05-26T18:06:35.231Z,19.95
2019-05-26T18:09:07.928Z,19.86
2019-05-26T18:11:39.046Z,19.78
2019-05-26T18:14:10.341Z,19.84
2019-05-26T18:16:41.693Z,19.82
2019-05-26T18:19:12.947Z,19.89
2019-05-26T18:21:44.320Z,19.94
2019-05-26T18:24:15.493Z,19.93
2019-05-26T18:26:46.759Z,19.92
2019-05-26T18:29:17.970Z,19.89
2019-05-26T18:31:49.465Z,19.96
2019-05-26T18:34:20.763Z,19.90
2019-05-26T18:36:52.006Z,19.91
2019-05-26T18:39:23.303Z,19.88
2019-05-26T18:41:54.586Z,19.78
2019-05-26T18:44:25.854Z,19.78
2019-05-26T18:46:57.115Z,19.74
2019-05-26T18:49:28.510Z,19.87
2019-05-26T18:51:59.830Z,19.76
2019-05-26T18:54:31.017Z,19.76
2019-05-26T18:57:02.376Z,19.73
2019-05-26T18:59:34.484Z,19.72
2019-05-26T19:02:05.847Z,19.82
2019-05-26T19:04:37.023Z,19.73
2019-05-26T19:07:08.452Z,19.64
2019-05-26T19:09:39.632Z,19.66
2019-05-26T19:12:11.372Z,19.59
2019-05-26T19:14:42.612Z,19.68
2019-05-26T19:17:14.251Z,19.65
2019-05-26T19:19:45.587Z,19.60
2019-05-26T19:22:16.807Z,19.66
2019-05-26T19:24:48.089Z,19.77
2019-05-26T19:27:19.424Z,19.65
2019-05-26T19:29:50.705Z,19.65
2019-05-26T19:32:21.957Z,19.65
2019-05-26T19:34:53.281Z,19.63
2019-05-26T19:37:24.643Z,19.51
2019-05-26T19:39:55.900Z,19.47
2019-05-26T19:42:27.221Z,19.43
2019-05-26T19:44:58.420Z,19.49
2019-05-26T19:47:29.772Z,19.51
2019-05-26T19:50:01.029Z,19.49
2019-05-26T19:52:32.408Z,19.44
2019-05-26T19:55:05.023Z,19.45
2019-05-26T19:57:36.358Z,19.50
2019-05-26T20:00:11.022Z,19.48
2019-05-26T20:02:42.361Z,19.54
2019-05-26T20:05:14.152Z,19.52
2019-05-26T20:07:45.586Z,19.57
2019-05-26T20:10:19.910Z,19.43
2019-05-26T20:12:51.224Z,19.47
2019-05-26T20:15:22.528Z,19.43
2019-05-26T20:17:53.879Z,19.53
2019-05-26T20:20:25.164Z,19.48
2019-05-26T20:22:56.397Z,19.48
2019-05-26T20:25:27.605Z,19.50
2019-05-26T20:27:59.009Z,19.51
2019-05-26T20:30:30.309Z,19.50
2019-05-26T20:33:01.652Z,19.58
2019-05-26T20:35:32.944Z,19.58
2019-05-26T20:38:04.311Z,19.55
2019-05-26T20:40:35.664Z,19.56
2019-05-26T20:43:07.021Z,19.63
2019-05-26T20:45:38.195Z,19.65
2019-05-26T20:48:09.512Z,19.69
2019-05-26T20:50:40.701Z,19.67
2019-05-26T20:53:12.064Z,19.66
2019-05-26T20:55:43.224Z,19.63
2019-05-26T20:58:14.635Z,19.65
2019-05-26T21:00:46.003Z,19.65
2019-05-26T21:03:17.344Z,19.63
2019-05-26T21:05:48.588Z,19.55
2019-05-26T21:08:20.029Z,19.52
2019-05-26T21:10:51.233Z,19.54
2019-05-26T21:13:22.757Z,19.49
2019-05-26T21:15:54.062Z,19.49
2019-05-26T21:18:25.331Z,19.55
2019-05-26T21:20:56.600Z,19.54
2019-05-26T21:23:27.926Z,19.49
2019-05-26T21:25:59.125Z,19.34
2019-05-26T21:28:30.508Z,19.29
2019-05-26T21:31:01.830Z,19.24
2019-05-26T21:33:33.087Z,19.27
2019-05-26T21:36:04.454Z,19.23
2019-05-26T21:38:35.798Z,19.22
2019-05-26T21:41:07.065Z,19.12
2019-05-26T21:43:38.530Z,19.12
2019-05-26T21:46:09.741Z,19.14
2019-05-26T21:48:41.133Z,19.23
2019-05-26T21:51:12.411Z,19.24
2019-05-26T21:53:43.743Z,19.28
2019-05-26T21:56:15.042Z,19.28
2019-05-26T21:58:46.246Z,19.24
2019-05-26T22:01:17.619Z,19.24
2019-05-26T22:03:48.992Z,19.19
2019-05-26T22:06:20.382Z,19.16
2019-05-26T22:08:51.683Z,19.17
2019-05-26T22:11:23.162Z,19.13
2019-05-26T22:13:54.517Z,19.24
2019-05-26T22:16:25.808Z,19.18
2019-05-26T22:19:00.148Z,19.07
2019-05-26T22:21:30.448Z,18.98
2019-05-26T22:24:01.824Z,19.04
2019-05-26T22:26:33.103Z,19.08
2019-05-26T22:29:04.431Z,19.11
2019-05-26T22:31:35.654Z,19.09
2019-05-26T22:36:55.199Z,18.87
2019-05-26T22:39:26.454Z,19.03
2019-05-26T22:41:57.776Z,19.04
2019-05-26T22:44:29.066Z,19.21
2019-05-26T22:47:00.385Z,19.16
2019-05-26T22:49:31.679Z,19.03
2019-05-26T22:52:03.026Z,19.00
2019-05-26T22:54:34.286Z,18.94
2019-05-26T22:57:05.704Z,19.05
2019-05-26T22:59:37.039Z,19.06
2019-05-26T23:02:08.627Z,18.92
2019-05-26T23:04:39.891Z,19.00
2019-05-26T23:07:11.201Z,19.04
2019-05-26T23:09:42.619Z,19.12
2019-05-26T23:12:13.916Z,19.05
2019-05-26T23:14:45.092Z,18.96
2019-05-26T23:17:16.398Z,19.05
2019-05-26T23:19:47.578Z,19.10
2019-05-26T23:22:18.899Z,19.07
2019-05-26T23:24:50.212Z,19.01
2019-05-26T23:27:21.491Z,19.10
2019-05-26T23:29:52.663Z,19.23
2019-05-26T23:32:24.075Z,19.24
2019-05-26T23:34:55.333Z,19.02
2019-05-26T23:37:26.600Z,19.03
2019-05-26T23:39:57.882Z,19.06
2019-05-26T23:42:29.136Z,19.01
2019-05-26T23:45:00.401Z,18.97
2019-05-26T23:47:31.630Z,19.05
2019-05-26T23:50:02.826Z,18.83
2019-05-26T23:52:34.083Z,18.81
2019-05-26T23:55:07.390Z,18.75
2019-05-26T23:57:38.666Z,18.67
